createdAt,value
2024-04-02T00:07:42.626Z,7.6
2024-04-02T00:20:42.646Z,7.3
2024-04-02T00:33:42.623Z,7.2
2024-04-02T00:46:42.653Z,6.8
2024-04-02T00:59:42.656Z,6.4
2024-04-02T01:12:42.673Z,6.2
2024-04-02T01:25:42.658Z,5.9
2024-04-02T01:38:42.666Z,5.8
2024-04-02T01:51:42.667Z,5.5
2024-04-02T02:04:42.665Z,6.1
2024-04-02T02:18:42.672Z,6.6
2024-04-02T02:31:42.854Z,7.4
2024-04-02T02:44:42.703Z,6.5
2024-04-02T02:57:42.705Z,5.9
2024-04-02T03:10:42.690Z,5.4
2024-04-02T03:23:42.698Z,5.3
2024-04-02T03:36:42.697Z,5.3
2024-04-02T03:49:42.719Z,5.2
2024-04-02T04:02:42.711Z,4.9
2024-04-02T04:15:42.713Z,4.6
2024-04-02T04:28:42.716Z,4.3
2024-04-02T04:41:42.726Z,4.1
2024-04-02T04:55:42.751Z,4.1
2024-04-02T05:09:42.743Z,4.0
2024-04-02T05:24:42.771Z,4.6
2024-04-02T05:38:45.106Z,4.6
2024-04-02T05:52:42.788Z,5.3
2024-04-02T06:06:42.892Z,5.9
2024-04-02T06:20:42.808Z,6.7
2024-04-02T06:34:42.814Z,7.6
2024-04-02T06:48:42.814Z,8.7
2024-04-02T07:02:42.862Z,10.4
2024-04-02T07:16:42.853Z,10.8
2024-04-02T07:30:42.865Z,13.8
2024-04-02T07:44:42.863Z,15.2
2024-04-02T07:59:42.863Z,15.0
2024-04-02T08:13:42.880Z,16.8
2024-04-02T08:28:42.877Z,15.5
2024-04-02T08:42:49.369Z,15.6
2024-04-02T08:56:42.914Z,16.4
2024-04-02T09:11:42.934Z,17.5
2024-04-02T09:25:42.940Z,16.4
2024-04-02T09:39:42.958Z,17.3
2024-04-02T09:53:50.428Z,17.3
2024-04-02T10:07:42.951Z,18.5
2024-04-02T10:21:42.954Z,18.8
2024-04-02T10:35:42.952Z,18.5
2024-04-02T10:49:42.963Z,19.1
2024-04-02T11:03:42.962Z,17.5
2024-04-02T11:17:42.966Z,19.0
2024-04-02T11:31:43.103Z,19.9
2024-04-02T11:45:42.979Z,20.1
2024-04-02T11:59:42.979Z,19.9
2024-04-02T12:13:42.970Z,20.5
2024-04-02T12:27:43.006Z,20.1
2024-04-02T12:41:43.010Z,20.1
2024-04-02T12:55:43.000Z,20.6
2024-04-02T13:09:43.024Z,20.9
2024-04-02T13:23:43.265Z,21.0
2024-04-02T13:37:43.015Z,22.1
2024-04-02T13:52:43.030Z,23.3
2024-04-02T14:06:43.094Z,22.2
2024-04-02T14:20:43.036Z,22.1
2024-04-02T14:34:43.046Z,20.9
2024-04-02T14:48:43.055Z,22.4
2024-04-02T15:02:43.080Z,23.3
2024-04-02T15:16:43.111Z,22.2
2024-04-02T15:30:43.111Z,20.1
2024-04-02T15:44:43.124Z,18.2
2024-04-02T15:58:43.129Z,17.6
2024-04-02T16:12:43.123Z,18.5
2024-04-02T16:26:43.191Z,18.4
2024-04-02T16:40:43.134Z,16.8
2024-04-02T16:54:43.124Z,15.5
2024-04-02T17:08:43.132Z,15.3
2024-04-02T17:22:43.150Z,14.8
2024-04-02T17:36:43.144Z,14.3
2024-04-02T17:50:43.144Z,14.1
2024-04-02T18:04:43.157Z,13.5
2024-04-02T18:18:43.164Z,12.7
2024-04-02T18:31:44.680Z,11.9
2024-04-02T18:44:43.186Z,11.4
2024-04-02T18:57:43.190Z,10.9
2024-04-02T19:10:43.212Z,10.3
2024-04-02T19:23:43.265Z,10.1
2024-04-02T19:36:43.202Z,10.1
2024-04-02T19:49:43.204Z,10.7
2024-04-02T20:02:43.204Z,11.1
2024-04-02T20:15:43.213Z,10.9
2024-04-02T20:28:43.249Z,10.6
2024-04-02T20:41:43.231Z,9.9
2024-04-02T20:54:43.232Z,9.4
2024-04-02T21:07:43.247Z,9.2
2024-04-02T21:20:43.254Z,9.0
2024-04-02T21:33:43.254Z,8.9
2024-04-02T21:46:43.245Z,8.5
2024-04-02T21:59:43.258Z,8.3
2024-04-02T22:12:43.267Z,8.2
2024-04-02T22:25:43.264Z,8.3
2024-04-02T22:38:43.285Z,8.1
2024-04-02T22:51:43.298Z,7.8
2024-04-02T23:04:43.314Z,7.6
2024-04-02T23:17:43.327Z,7.8
2024-04-02T23:30:43.320Z,8.6
2024-04-02T23:43:43.330Z,8.4
2024-04-02T23:56:43.335Z,7.8
